createdAt,value
2017-09-24T00:01:51.923Z,9.00
2017-09-24T00:04:18.356Z,9.00
2017-09-24T00:06:44.826Z,8.90
2017-09-24T00:09:11.323Z,8.70
2017-09-24T00:11:37.759Z,8.60
2017-09-24T00:14:04.244Z,8.50
2017-09-24T00:16:30.680Z,8.60
2017-09-24T00:18:57.111Z,8.60
2017-09-24T00:21:23.566Z,8.60
2017-09-24T00:23:49.991Z,8.50
2017-09-24T00:26:16.435Z,8.50
2017-09-24T00:28:42.885Z,8.40
2017-09-24T00:31:09.332Z,8.50
2017-09-24T00:33:36.612Z,8.30
2017-09-24T00:36:03.045Z,8.30
2017-09-24T00:38:29.580Z,8.40
2017-09-24T00:40:56.059Z,8.40
2017-09-24T00:43:22.534Z,8.40
2017-09-24T00:45:48.961Z,8.20
2017-09-24T00:48:16.198Z,8.10
2017-09-24T00:50:43.403Z,8.10
2017-09-24T00:53:09.838Z,8.10
2017-09-24T00:55:36.299Z,8.00
2017-09-24T00:58:02.781Z,8.10
2017-09-24T01:00:29.222Z,8.10
2017-09-24T01:02:55.686Z,8.20
2017-09-24T01:05:22.134Z,8.10
2017-09-24T01:07:48.587Z,8.20
2017-09-24T01:10:15.734Z,8.10
2017-09-24T01:12:42.205Z,8.10
2017-09-24T01:15:08.675Z,8.10
2017-09-24T01:17:35.138Z,8.00
2017-09-24T01:20:02.423Z,8.00
2017-09-24T01:22:28.875Z,7.90
2017-09-24T01:24:55.303Z,7.90
2017-09-24T01:27:21.791Z,8.00
2017-09-24T01:29:48.947Z,8.00
2017-09-24T01:32:15.419Z,7.90
2017-09-24T01:34:41.931Z,7.90
2017-09-24T01:37:08.364Z,7.70
2017-09-24T01:39:34.803Z,7.70
2017-09-24T01:42:01.238Z,7.60
2017-09-24T01:44:27.690Z,7.60
2017-09-24T01:46:54.171Z,7.60
2017-09-24T01:49:21.323Z,7.70
2017-09-24T01:51:48.512Z,7.70
2017-09-24T01:54:14.932Z,7.70
2017-09-24T01:56:41.391Z,7.70
2017-09-24T01:59:07.830Z,7.70
2017-09-24T02:01:34.318Z,7.60
2017-09-24T02:04:01.483Z,7.50
2017-09-24T02:06:27.923Z,7.50
2017-09-24T02:08:54.378Z,7.50
2017-09-24T02:11:20.879Z,7.30
2017-09-24T02:13:47.334Z,7.40
2017-09-24T02:16:13.760Z,7.40
2017-09-24T02:18:40.199Z,7.40
2017-09-24T02:21:06.648Z,7.40
2017-09-24T02:23:33.044Z,7.50
2017-09-24T02:25:59.618Z,7.40
2017-09-24T02:28:26.066Z,7.30
2017-09-24T02:30:53.244Z,7.20
2017-09-24T02:33:19.692Z,7.10
2017-09-24T02:35:46.171Z,7.20
2017-09-24T02:38:12.619Z,7.20
2017-09-24T02:40:39.783Z,7.00
2017-09-24T02:43:07.007Z,7.00
2017-09-24T02:45:33.440Z,6.90
2017-09-24T02:47:59.907Z,7.00
2017-09-24T02:50:26.371Z,7.00
2017-09-24T02:52:52.794Z,7.00
2017-09-24T02:55:19.231Z,7.00
2017-09-24T02:57:45.671Z,7.00
2017-09-24T03:00:12.149Z,7.00
2017-09-24T03:02:38.598Z,7.00
2017-09-24T03:05:05.819Z,7.10
2017-09-24T03:07:32.298Z,7.10
2017-09-24T03:09:58.740Z,7.00
2017-09-24T03:12:25.189Z,6.90
2017-09-24T03:14:51.612Z,6.80
2017-09-24T03:17:18.226Z,6.80
2017-09-24T03:19:44.687Z,6.70
2017-09-24T03:22:11.147Z,6.80
2017-09-24T03:24:37.602Z,6.80
2017-09-24T03:27:04.793Z,6.70
2017-09-24T03:29:31.246Z,6.70
2017-09-24T03:31:57.684Z,6.70
2017-09-24T03:34:24.239Z,6.70
2017-09-24T03:36:50.790Z,6.70
2017-09-24T03:39:18.119Z,6.60
2017-09-24T03:41:44.550Z,6.60
2017-09-24T03:44:10.990Z,6.60
2017-09-24T03:46:38.231Z,6.60
2017-09-24T03:49:04.683Z,6.60
2017-09-24T03:51:31.121Z,6.50
2017-09-24T03:53:58.310Z,6.50
2017-09-24T03:56:24.773Z,6.50
2017-09-24T03:58:51.263Z,6.50
2017-09-24T04:01:17.715Z,6.30
2017-09-24T04:03:44.172Z,6.30
2017-09-24T04:06:10.615Z,6.30
2017-09-24T04:08:37.051Z,6.30
2017-09-24T04:11:03.480Z,6.40
2017-09-24T04:13:30.082Z,6.30
2017-09-24T04:15:56.543Z,6.30
2017-09-24T04:18:22.975Z,6.20
2017-09-24T04:20:49.431Z,6.10
2017-09-24T04:23:15.871Z,6.10
2017-09-24T04:25:43.027Z,6.20
2017-09-24T04:28:10.238Z,6.20
2017-09-24T04:30:36.659Z,6.20
2017-09-24T04:33:03.122Z,6.10
2017-09-24T04:35:29.624Z,6.30
2017-09-24T04:37:56.231Z,6.20
2017-09-24T04:40:22.679Z,6.10
2017-09-24T04:42:49.114Z,6.10
2017-09-24T04:45:15.588Z,6.00
2017-09-24T04:47:42.123Z,6.00
2017-09-24T04:50:08.659Z,5.90
2017-09-24T04:52:35.075Z,5.80
2017-09-24T04:55:01.507Z,5.90
2017-09-24T04:57:27.983Z,5.90
2017-09-24T04:59:55.168Z,5.90
2017-09-24T05:02:21.636Z,5.90
2017-09-24T05:04:48.075Z,5.90
2017-09-24T05:07:14.520Z,5.70
2017-09-24T05:09:41.000Z,5.80
2017-09-24T05:12:07.442Z,5.80
2017-09-24T05:14:33.931Z,5.80
2017-09-24T05:17:01.124Z,5.90
2017-09-24T05:19:27.550Z,5.90
2017-09-24T05:21:54.234Z,6.00
2017-09-24T05:24:22.175Z,6.00
2017-09-24T05:26:48.611Z,6.00
2017-09-24T05:29:15.043Z,6.00
2017-09-24T05:31:41.483Z,6.00
2017-09-24T05:34:07.941Z,6.00
2017-09-24T05:36:34.398Z,6.10
2017-09-24T05:39:00.862Z,6.50
2017-09-24T05:41:27.307Z,6.80
2017-09-24T05:43:53.750Z,7.30
2017-09-24T05:46:20.255Z,7.90
2017-09-24T05:48:46.684Z,8.30
2017-09-24T05:51:13.227Z,8.70
2017-09-24T05:53:39.641Z,9.20
2017-09-24T05:56:06.107Z,9.70
2017-09-24T05:58:32.590Z,10.10
2017-09-24T06:00:59.771Z,10.90
2017-09-24T06:03:26.238Z,10.80
2017-09-24T06:05:52.750Z,11.40
2017-09-24T06:08:19.194Z,11.90
2017-09-24T06:10:45.612Z,12.40
2017-09-24T06:13:12.071Z,13.00
2017-09-24T06:15:38.555Z,13.70
2017-09-24T06:18:05.001Z,14.20
2017-09-24T06:20:31.443Z,14.70
2017-09-24T06:22:57.867Z,15.10
2017-09-24T06:25:24.271Z,15.60
2017-09-24T06:27:51.449Z,15.90
2017-09-24T06:30:17.899Z,15.90
2017-09-24T06:32:44.371Z,16.60
2017-09-24T06:35:10.800Z,16.80
2017-09-24T06:37:37.270Z,17.10
2017-09-24T06:40:03.690Z,17.40
2017-09-24T06:42:30.899Z,19.20
2017-09-24T06:44:57.317Z,19.10
2017-09-24T06:47:23.757Z,19.50
2017-09-24T06:49:50.272Z,19.60
2017-09-24T06:52:16.723Z,19.10
2017-09-24T06:54:43.179Z,19.20
2017-09-24T06:57:09.638Z,19.80
2017-09-24T06:59:36.867Z,19.80
2017-09-24T07:02:03.351Z,19.80
2017-09-24T07:04:29.791Z,19.40
2017-09-24T07:06:56.251Z,19.90
2017-09-24T07:09:22.704Z,20.30
2017-09-24T07:11:49.178Z,20.50
2017-09-24T07:14:15.626Z,20.90
2017-09-24T07:16:42.103Z,21.30
2017-09-24T07:19:08.561Z,21.70
2017-09-24T07:21:35.743Z,21.50
2017-09-24T07:24:02.164Z,21.50
2017-09-24T07:26:28.582Z,22.30
2017-09-24T07:28:55.033Z,23.20
2017-09-24T07:31:21.456Z,23.50
2017-09-24T07:33:47.914Z,23.60
2017-09-24T07:36:14.378Z,23.60
2017-09-24T07:38:40.867Z,23.70
2017-09-24T07:41:07.320Z,23.50
2017-09-24T07:43:33.863Z,22.80
2017-09-24T07:46:00.319Z,21.70
2017-09-24T07:48:26.850Z,22.30
2017-09-24T07:50:53.345Z,22.80
2017-09-24T07:53:19.783Z,22.30
2017-09-24T07:55:46.255Z,22.40
2017-09-24T07:58:12.709Z,22.70
2017-09-24T08:00:40.036Z,21.50
2017-09-24T08:03:06.516Z,21.30
2017-09-24T08:05:33.206Z,21.80
2017-09-24T08:07:59.712Z,21.10
2017-09-24T08:10:26.150Z,20.30
2017-09-24T08:12:52.743Z,20.30
2017-09-24T08:15:19.190Z,20.80
2017-09-24T08:17:45.653Z,20.90
2017-09-24T08:20:12.145Z,21.40
2017-09-24T08:22:38.591Z,21.30
2017-09-24T08:25:05.063Z,21.80
2017-09-24T08:27:31.527Z,21.80
2017-09-24T08:29:58.935Z,21.10
2017-09-24T08:32:25.546Z,21.00
2017-09-24T08:34:52.018Z,21.40
2017-09-24T08:37:18.631Z,22.30
2017-09-24T08:39:45.087Z,21.70
2017-09-24T08:42:11.574Z,21.50
2017-09-24T08:44:38.031Z,21.50
2017-09-24T08:47:04.499Z,21.70
2017-09-24T08:49:30.981Z,22.60
2017-09-24T08:51:57.413Z,22.90
2017-09-24T08:54:23.864Z,22.90
2017-09-24T08:56:50.329Z,23.00
2017-09-24T08:59:16.822Z,23.30
2017-09-24T09:01:43.261Z,23.90
2017-09-24T09:04:09.800Z,23.80
2017-09-24T09:06:36.255Z,24.30
2017-09-24T09:09:02.735Z,24.20
2017-09-24T09:11:29.960Z,23.10
2017-09-24T09:13:56.582Z,23.10
2017-09-24T09:16:23.015Z,23.00
2017-09-24T09:18:49.444Z,23.70
2017-09-24T09:21:15.892Z,24.00
2017-09-24T09:23:42.339Z,23.30
2017-09-24T09:26:09.531Z,24.00
2017-09-24T09:28:35.983Z,24.00
2017-09-24T09:31:02.544Z,23.90
2017-09-24T09:33:29.063Z,23.60
2017-09-24T09:35:56.050Z,23.90
2017-09-24T09:38:23.266Z,23.90
2017-09-24T09:40:49.897Z,23.90
2017-09-24T09:43:28.405Z,24.20
2017-09-24T09:45:58.853Z,24.20
2017-09-24T09:48:25.338Z,24.20
2017-09-24T09:50:51.792Z,24.40
2017-09-24T09:53:18.336Z,24.90
2017-09-24T09:55:44.805Z,24.70
2017-09-24T09:58:11.288Z,24.70
2017-09-24T10:00:37.712Z,24.00
2017-09-24T10:03:04.243Z,23.50
2017-09-24T10:05:30.759Z,23.50
2017-09-24T10:08:09.489Z,23.60
2017-09-24T10:10:36.062Z,22.90
2017-09-24T10:13:02.552Z,22.40
2017-09-24T10:15:29.076Z,21.90
2017-09-24T10:17:56.467Z,22.30
2017-09-24T10:20:22.909Z,22.30
2017-09-24T10:22:49.363Z,22.70
2017-09-24T10:25:15.804Z,23.50
2017-09-24T10:27:42.431Z,23.10
2017-09-24T10:30:20.830Z,22.30
2017-09-24T10:32:47.295Z,21.50
2017-09-24T10:35:13.744Z,21.40
2017-09-24T10:37:40.896Z,20.30
2017-09-24T10:40:08.114Z,19.80
2017-09-24T10:42:34.556Z,19.80
2017-09-24T10:45:01.035Z,20.10
2017-09-24T10:47:27.502Z,20.10
2017-09-24T10:49:54.018Z,19.90
2017-09-24T10:52:20.513Z,20.50
2017-09-24T10:54:47.686Z,22.00
2017-09-24T10:57:14.123Z,22.00
2017-09-24T10:59:40.555Z,22.50
2017-09-24T11:02:07.026Z,22.50
2017-09-24T11:04:33.530Z,23.10
2017-09-24T11:07:00.022Z,23.50
2017-09-24T11:09:27.226Z,23.20
2017-09-24T11:11:53.657Z,23.10
2017-09-24T11:14:20.146Z,22.20
2017-09-24T11:16:47.319Z,22.50
2017-09-24T11:19:13.791Z,22.50
2017-09-24T11:21:40.244Z,22.50
2017-09-24T11:24:06.707Z,22.50
2017-09-24T11:26:33.966Z,23.30
2017-09-24T11:29:00.580Z,23.20
2017-09-24T11:31:27.787Z,23.70
2017-09-24T11:33:54.436Z,23.60
2017-09-24T11:36:20.930Z,23.80
2017-09-24T11:38:47.324Z,23.60
2017-09-24T11:41:13.764Z,22.10
2017-09-24T11:43:40.908Z,22.40
2017-09-24T11:46:08.066Z,22.70
2017-09-24T11:48:35.303Z,22.80
2017-09-24T11:51:01.812Z,22.70
2017-09-24T11:53:28.310Z,22.50
2017-09-24T11:55:54.930Z,23.30
2017-09-24T11:58:22.116Z,24.40
2017-09-24T12:00:48.524Z,24.40
2017-09-24T12:03:14.964Z,24.40
2017-09-24T12:05:41.434Z,24.50
2017-09-24T12:08:07.814Z,22.70
2017-09-24T12:10:35.011Z,21.60
2017-09-24T12:13:01.428Z,21.50
2017-09-24T12:15:27.927Z,20.90
2017-09-24T12:17:54.471Z,21.50
2017-09-24T12:20:20.945Z,20.80
2017-09-24T12:22:47.412Z,20.80
2017-09-24T12:25:13.884Z,20.40
2017-09-24T12:27:40.476Z,20.30
2017-09-24T12:30:06.938Z,21.10
2017-09-24T12:32:33.404Z,21.80
2017-09-24T12:34:59.923Z,21.50
2017-09-24T12:37:26.386Z,20.90
2017-09-24T12:39:52.852Z,20.90
2017-09-24T12:42:20.167Z,21.70
2017-09-24T12:44:46.645Z,21.60
2017-09-24T12:47:13.884Z,21.30
2017-09-24T12:49:41.139Z,21.00
2017-09-24T12:52:07.615Z,20.90
2017-09-24T12:54:34.198Z,20.80
2017-09-24T12:57:00.691Z,20.80
2017-09-24T12:59:27.179Z,20.40
2017-09-24T13:01:54.479Z,20.50
2017-09-24T13:04:20.972Z,20.40
2017-09-24T13:06:48.180Z,20.40
2017-09-24T13:09:14.606Z,20.40
2017-09-24T13:11:41.103Z,20.40
2017-09-24T13:14:07.587Z,20.50
2017-09-24T13:16:34.095Z,20.60
2017-09-24T13:19:00.600Z,20.70
2017-09-24T13:21:27.823Z,20.40
2017-09-24T13:23:54.275Z,20.40
2017-09-24T13:26:21.464Z,20.20
2017-09-24T13:28:48.095Z,20.20
2017-09-24T13:31:14.567Z,20.20
2017-09-24T13:33:41.017Z,20.10
2017-09-24T13:36:07.563Z,20.00
2017-09-24T13:38:34.775Z,20.00
2017-09-24T13:41:01.228Z,20.00
2017-09-24T13:43:27.718Z,20.00
2017-09-24T13:45:54.173Z,19.70
2017-09-24T13:48:20.617Z,19.50
2017-09-24T13:50:47.093Z,19.50
2017-09-24T13:53:14.388Z,19.70
2017-09-24T13:55:40.911Z,19.60
2017-09-24T13:58:07.391Z,19.70
2017-09-24T14:00:33.824Z,19.30
2017-09-24T14:03:01.043Z,19.10
2017-09-24T14:05:27.535Z,19.10
2017-09-24T14:07:54.127Z,19.20
2017-09-24T14:10:20.626Z,19.40
2017-09-24T14:12:47.102Z,19.60
2017-09-24T14:15:13.582Z,19.80
2017-09-24T14:17:40.045Z,19.90
2017-09-24T14:20:06.562Z,19.90
2017-09-24T14:22:33.027Z,19.70
2017-09-24T14:24:59.472Z,20.00
2017-09-24T14:27:26.107Z,19.80
2017-09-24T14:29:52.739Z,19.80
2017-09-24T14:32:19.191Z,20.00
2017-09-24T14:34:45.638Z,20.00
2017-09-24T14:37:12.851Z,19.80
2017-09-24T14:39:39.327Z,19.80
2017-09-24T14:42:06.522Z,19.30
2017-09-24T14:44:32.945Z,19.30
2017-09-24T14:46:59.439Z,19.30
2017-09-24T14:49:26.754Z,19.20
2017-09-24T14:51:53.241Z,19.20
2017-09-24T14:54:19.688Z,19.20
2017-09-24T14:56:46.158Z,19.20
2017-09-24T14:59:12.635Z,19.10
2017-09-24T15:01:39.142Z,19.00
2017-09-24T15:04:05.603Z,18.80
2017-09-24T15:06:32.106Z,18.70
2017-09-24T15:08:58.546Z,18.50
2017-09-24T15:11:25.015Z,18.40
2017-09-24T15:13:51.495Z,18.20
2017-09-24T15:16:18.043Z,18.10
2017-09-24T15:18:44.501Z,18.00
2017-09-24T15:21:10.982Z,17.80
2017-09-24T15:23:37.440Z,17.60
2017-09-24T15:26:03.980Z,17.50
2017-09-24T15:28:30.444Z,17.40
2017-09-24T15:30:56.863Z,17.30
2017-09-24T15:33:24.254Z,17.10
2017-09-24T15:35:50.697Z,17.10
2017-09-24T15:38:17.148Z,16.90
2017-09-24T15:40:43.597Z,16.80
2017-09-24T15:43:10.044Z,16.90
2017-09-24T15:45:37.275Z,16.80
2017-09-24T15:48:04.526Z,16.80
2017-09-24T15:50:31.721Z,16.90
2017-09-24T15:52:58.160Z,16.80
2017-09-24T15:55:24.655Z,16.90
2017-09-24T15:57:51.161Z,16.90
2017-09-24T16:00:17.612Z,16.80
2017-09-24T16:02:44.866Z,16.60
2017-09-24T16:05:12.815Z,16.50
2017-09-24T16:07:39.317Z,16.50
2017-09-24T16:10:05.797Z,16.70
2017-09-24T16:12:32.993Z,16.30
2017-09-24T16:14:59.434Z,16.20
2017-09-24T16:17:25.932Z,16.20
2017-09-24T16:19:53.183Z,16.20
2017-09-24T16:22:20.387Z,16.20
2017-09-24T16:24:46.857Z,16.20
2017-09-24T16:27:14.091Z,16.00
2017-09-24T16:29:40.865Z,16.00
2017-09-24T16:32:08.108Z,16.10
2017-09-24T16:34:35.371Z,16.00
2017-09-24T16:37:02.568Z,16.00
2017-09-24T16:39:29.048Z,16.00
2017-09-24T16:41:56.239Z,16.00
2017-09-24T16:44:22.726Z,16.00
2017-09-24T16:46:49.204Z,16.00
2017-09-24T16:49:15.719Z,16.00
2017-09-24T16:51:42.180Z,16.00
2017-09-24T16:54:08.704Z,15.80
2017-09-24T16:56:35.166Z,15.90
2017-09-24T16:59:01.627Z,15.90
2017-09-24T17:01:28.881Z,15.80
2017-09-24T17:03:55.310Z,15.70
2017-09-24T17:06:23.254Z,15.70
2017-09-24T17:08:50.454Z,15.60
2017-09-24T17:11:17.011Z,15.60
2017-09-24T17:13:43.471Z,15.40
2017-09-24T17:16:09.935Z,15.30
2017-09-24T17:18:37.182Z,15.20
2017-09-24T17:21:05.099Z,15.20
2017-09-24T17:23:31.610Z,15.20
2017-09-24T17:25:58.056Z,15.20
2017-09-24T17:28:24.595Z,15.10
2017-09-24T17:30:51.099Z,15.10
2017-09-24T17:33:19.193Z,15.10
2017-09-24T17:35:45.779Z,15.00
2017-09-24T17:38:12.259Z,15.00
2017-09-24T17:40:38.755Z,15.00
2017-09-24T17:43:06.701Z,14.80
2017-09-24T17:45:33.219Z,14.80
2017-09-24T17:48:01.424Z,14.60
2017-09-24T17:50:27.938Z,14.50
2017-09-24T17:52:54.418Z,14.40
2017-09-24T17:55:21.700Z,14.40
2017-09-24T17:57:48.295Z,14.40
2017-09-24T18:00:15.485Z,14.40
2017-09-24T18:02:42.028Z,14.40
2017-09-24T18:05:08.501Z,14.30
2017-09-24T18:07:35.744Z,14.10
2017-09-24T18:10:02.277Z,14.10
2017-09-24T18:12:28.835Z,14.00
2017-09-24T18:14:56.092Z,14.00
2017-09-24T18:17:22.543Z,14.00
2017-09-24T18:19:49.033Z,14.00
2017-09-24T18:22:15.527Z,14.00
2017-09-24T18:24:42.059Z,14.00
2017-09-24T18:27:08.608Z,14.00
2017-09-24T18:29:35.041Z,14.00
2017-09-24T18:32:01.531Z,13.90
2017-09-24T18:34:28.775Z,13.90
2017-09-24T18:36:56.118Z,13.90
2017-09-24T18:39:22.741Z,13.90
2017-09-24T18:41:49.213Z,13.80
2017-09-24T18:44:16.412Z,13.80
2017-09-24T18:46:43.004Z,13.80
2017-09-24T18:49:10.223Z,13.80
2017-09-24T18:51:38.191Z,13.70
2017-09-24T18:54:04.650Z,13.70
2017-09-24T18:56:33.550Z,13.70
2017-09-24T18:59:00.809Z,13.60
2017-09-24T19:01:27.298Z,13.60
2017-09-24T19:03:53.790Z,13.70
2017-09-24T19:06:20.250Z,13.60
2017-09-24T19:08:46.822Z,13.60
2017-09-24T19:11:14.040Z,13.50
2017-09-24T19:13:40.592Z,13.50
2017-09-24T19:16:07.791Z,13.50
2017-09-24T19:18:34.358Z,13.50
2017-09-24T19:21:01.684Z,13.30
2017-09-24T19:23:28.244Z,13.20
2017-09-24T19:25:54.864Z,13.10
2017-09-24T19:28:21.433Z,13.00
2017-09-24T19:30:49.067Z,12.80
2017-09-24T19:33:15.639Z,12.80
2017-09-24T19:35:43.078Z,12.70
2017-09-24T19:38:09.621Z,12.70
2017-09-24T19:40:36.184Z,12.70
2017-09-24T19:43:03.674Z,12.50
2017-09-24T19:45:30.311Z,12.40
2017-09-24T19:47:56.933Z,12.40
2017-09-24T19:50:23.442Z,12.40
2017-09-24T19:52:50.907Z,12.20
2017-09-24T19:55:18.113Z,12.20
2017-09-24T19:57:44.583Z,12.20
2017-09-24T20:00:11.810Z,12.10
2017-09-24T20:02:38.313Z,12.10
2017-09-24T20:05:04.847Z,12.00
2017-09-24T20:07:31.296Z,12.00
2017-09-24T20:09:57.773Z,12.00
2017-09-24T20:12:24.998Z,11.90
2017-09-24T20:14:51.466Z,11.90
2017-09-24T20:17:18.840Z,11.90
2017-09-24T20:19:45.275Z,11.80
2017-09-24T20:22:11.757Z,11.80
2017-09-24T20:24:38.250Z,11.90
2017-09-24T20:27:04.718Z,11.80
2017-09-24T20:29:31.185Z,11.90
2017-09-24T20:31:58.365Z,11.80
2017-09-24T20:34:24.867Z,11.80
2017-09-24T20:36:52.075Z,11.80
2017-09-24T20:39:18.536Z,11.80
2017-09-24T20:41:45.007Z,11.80
2017-09-24T20:44:11.465Z,11.80
2017-09-24T20:46:37.940Z,11.90
2017-09-24T20:49:04.444Z,11.90
2017-09-24T20:51:30.914Z,11.80
2017-09-24T20:53:58.156Z,11.60
2017-09-24T20:56:24.590Z,11.60
2017-09-24T20:58:51.043Z,11.60
2017-09-24T21:01:18.368Z,11.40
2017-09-24T21:03:44.857Z,11.30
2017-09-24T21:06:11.312Z,11.40
2017-09-24T21:08:37.761Z,11.30
2017-09-24T21:11:04.215Z,11.40
2017-09-24T21:13:30.651Z,11.30
2017-09-24T21:15:57.959Z,11.20
2017-09-24T21:18:24.395Z,11.20
2017-09-24T21:20:50.912Z,11.00
2017-09-24T21:23:17.379Z,11.00
2017-09-24T21:25:43.861Z,11.00
2017-09-24T21:28:10.336Z,11.00
2017-09-24T21:30:36.782Z,10.90
2017-09-24T21:33:03.243Z,10.90
2017-09-24T21:35:30.479Z,10.90
2017-09-24T21:37:56.903Z,10.90
2017-09-24T21:40:23.403Z,10.90
2017-09-24T21:42:49.833Z,10.80
2017-09-24T21:45:16.342Z,10.70
2017-09-24T21:47:42.839Z,10.60
2017-09-24T21:50:09.266Z,10.40
2017-09-24T21:52:35.735Z,10.40
2017-09-24T21:55:02.974Z,10.40
2017-09-24T21:57:30.171Z,10.30
2017-09-24T21:59:56.682Z,10.20
2017-09-24T22:02:23.226Z,10.20
2017-09-24T22:04:49.746Z,10.20
2017-09-24T22:07:16.983Z,10.10
2017-09-24T22:09:44.435Z,10.10
2017-09-24T22:12:11.643Z,10.00
2017-09-24T22:14:38.130Z,10.00
2017-09-24T22:17:05.301Z,9.90
2017-09-24T22:19:31.754Z,9.80
2017-09-24T22:21:58.280Z,9.80
2017-09-24T22:24:24.772Z,9.70
2017-09-24T22:26:51.987Z,9.50
2017-09-24T22:29:18.495Z,9.50
2017-09-24T22:31:44.970Z,9.50
2017-09-24T22:34:11.435Z,9.40
2017-09-24T22:36:38.650Z,9.30
2017-09-24T22:39:05.090Z,9.30
2017-09-24T22:41:31.588Z,9.30
2017-09-24T22:43:58.072Z,9.30
2017-09-24T22:46:24.551Z,9.20
2017-09-24T22:48:51.014Z,9.00
2017-09-24T22:51:17.501Z,9.00
2017-09-24T22:53:43.934Z,8.90
2017-09-24T22:56:10.373Z,8.90
2017-09-24T22:58:36.838Z,9.00
2017-09-24T23:01:03.359Z,9.00
2017-09-24T23:03:29.843Z,8.80
2017-09-24T23:05:57.026Z,8.90
2017-09-24T23:08:23.463Z,8.90
2017-09-24T23:10:49.893Z,8.90
2017-09-24T23:13:16.407Z,8.90
2017-09-24T23:15:42.867Z,8.70
2017-09-24T23:18:09.295Z,8.60
2017-09-24T23:20:35.751Z,8.50
2017-09-24T23:23:02.234Z,8.40
2017-09-24T23:25:29.443Z,8.50
2017-09-24T23:27:55.899Z,8.50
2017-09-24T23:30:22.396Z,8.50
2017-09-24T23:32:48.844Z,8.50
2017-09-24T23:35:15.304Z,8.40
2017-09-24T23:37:41.782Z,8.50
2017-09-24T23:40:08.207Z,8.50
2017-09-24T23:42:34.670Z,8.50
2017-09-24T23:45:01.108Z,8.50
2017-09-24T23:47:27.562Z,8.50
2017-09-24T23:49:54.207Z,8.40
2017-09-24T23:52:20.631Z,8.40
2017-09-24T23:54:47.099Z,8.30
2017-09-24T23:57:13.556Z,8.20
2017-09-24T23:59:40.015Z,8.20
